^^
Grace C. Lehan Memorial Weather Station Historical Data
Daily Summary for January 12, 2022 Units:  Metric    English   Both
Daily Weekly Monthly Yearly
  High: Low: Average:
Temperature: 4.5 °C -12.9 °C -3.1 °C
Dew Point: -3.3 °C -16.4 °C -8.8 °C
Humidity: 83% 50.5% 66%
Wind Speed: 12.9km/h 0km/h 1.9km/h
Wind Gust: 29km/h - -
Wind- - WSW
Pressure: 1030.7 hPa 1016.5 hPa -
Precipitation: 0.51 mm    
 
 
Tabular Data for January 12, 2022
Time Temperature Dew Point Pressure Wind Wind Speed Wind Gust Humidity Rainfall Rate (Hourly) solar
00:04 -12.8 °C -16.3 °C 1030.7 hPa WNW 0.2 km/h 3.2 km/h 75% 0 mm 0 W/m2
00:09 -12.9 °C -16.3 °C 1030.4 hPa Calm   1.6 km/h 75.8% 0 mm 0 W/m2
00:14 -12.9 °C -16.2 °C 1030 hPa Calm   1.6 km/h 76% 0 mm 0 W/m2
00:19 -12.9 °C -16.3 °C 1030 hPa WNW 0.6 km/h 3.2 km/h 75.5% 0 mm 0 W/m2
00:24 -12.8 °C -16.3 °C 1030 hPa WNW 0.5 km/h 3.2 km/h 75% 0 mm 0 W/m2
00:29 -12.7 °C -16.2 °C 1030.4 hPa WNW 0.6 km/h 4.8 km/h 75% 0 mm 0 W/m2
00:34 -12.7 °C -16.2 °C 1030.4 hPa Calm   4.8 km/h 75% 0 mm 0 W/m2
00:39 -12.7 °C -16.2 °C 1030.4 hPa Calm   1.6 km/h 75% 0 mm 0 W/m2
00:44 -12.7 °C -16.2 °C 1030 hPa WNW 0.8 km/h 4.8 km/h 75% 0 mm 0 W/m2
00:49 -12.7 °C -16.2 °C 1030 hPa WNW 0.5 km/h 4.8 km/h 75% 0 mm 0 W/m2
00:54 -12.7 °C -16.2 °C 1030 hPa WNW 0.2 km/h 4.8 km/h 75% 0 mm 0 W/m2
00:59 -12.6 °C -16.1 °C 1030 hPa Calm   4.8 km/h 75% 0 mm 0 W/m2
01:04 -12.6 °C -16.3 °C 1030 hPa WNW 0.6 km/h 4.8 km/h 74% 0 mm 0 W/m2
01:09 -12.6 °C -16.3 °C 1030 hPa Calm   3.2 km/h 73.7% 0 mm 0 W/m2
01:14 -12.6 °C -16.4 °C 1029.7 hPa Calm   3.2 km/h 73% 0 mm 0 W/m2
01:19 -12.6 °C -16.4 °C 1029.7 hPa WNW 0.6 km/h 3.2 km/h 73% 0 mm 0 W/m2
01:24 -12.6 °C -16.4 °C 1029.7 hPa WNW 0.2 km/h 3.2 km/h 73% 0 mm 0 W/m2
01:29 -12.6 °C -16.4 °C 1029.7 hPa WNW 1 km/h 3.2 km/h 73% 0 mm 0 W/m2
01:34 -12.6 °C -16.4 °C 1029.7 hPa WNW 0.5 km/h 3.2 km/h 73.3% 0 mm 0 W/m2
01:39 -12.6 °C -16.3 °C 1029.7 hPa WNW 0.3 km/h 3.2 km/h 73.8% 0 mm 0 W/m2
01:44 -12.6 °C -16.2 °C 1030 hPa Calm   3.2 km/h 74% 0 mm 0 W/m2
01:49 -12.6 °C -16.2 °C 1030 hPa WNW 0.8 km/h 4.8 km/h 74% 0 mm 0 W/m2
01:54 -12.5 °C -16.2 °C 1029.7 hPa WNW 0.2 km/h 4.8 km/h 74% 0 mm 0 W/m2
01:59 -12.5 °C -16.2 °C 1029.7 hPa Calm   4.8 km/h 74% 0 mm 0 W/m2
02:04 -12.5 °C -16.2 °C 1029.3 hPa WNW 0.3 km/h 4.8 km/h 74% 0 mm 0 W/m2
02:09 -12.5 °C -16.1 °C 1029.3 hPa Calm   3.2 km/h 74.3% 0 mm 0 W/m2
02:14 -12.5 °C -16 °C 1029.3 hPa Calm   3.2 km/h 75% 0 mm 0 W/m2
02:19 -12.5 °C -16.1 °C 1029.3 hPa Calm   3.2 km/h 74.2% 0 mm 0 W/m2
02:24 -12.5 °C -16.2 °C 1029 hPa Calm   3.2 km/h 73.8% 0 mm 0 W/m2
02:29 -12.4 °C -16.2 °C 1029 hPa Calm   3.2 km/h 73.3% 0 mm 0 W/m2
02:34 -12.4 °C -16.2 °C 1028.7 hPa Calm   3.2 km/h 73% 0 mm 0 W/m2
02:39 -12.3 °C -16.1 °C 1028.7 hPa WNW 0.2 km/h 1.6 km/h 73.5% 0 mm 0 W/m2
02:44 -12.2 °C -15.9 °C 1028.7 hPa Calm   1.6 km/h 74% 0 mm 0 W/m2
02:49 -12.1 °C -15.8 °C 1028.7 hPa WNW 0.2 km/h 1.6 km/h 74% 0 mm 0 W/m2
02:54 -12.1 °C -15.8 °C 1028.7 hPa WNW 0.6 km/h 3.2 km/h 73.7% 0 mm 0 W/m2
02:59 -12.1 °C -15.9 °C 1028 hPa Calm   3.2 km/h 73% 0 mm 0 W/m2
03:04 -12.1 °C -15.9 °C 1028 hPa Calm   3.2 km/h 73% 0 mm 0 W/m2
03:09 -12 °C -15.9 °C 1028 hPa WNW 0.2 km/h 1.6 km/h 72.8% 0 mm 0 W/m2
03:14 -12 °C -16 °C 1028 hPa WNW 0.5 km/h 3.2 km/h 72% 0 mm 0 W/m2
03:19 -12 °C -15.8 °C 1028 hPa Calm   3.2 km/h 73% 0 mm 0 W/m2
03:24 -12 °C -15.8 °C 1027.7 hPa Calm   3.2 km/h 73% 0 mm 0 W/m2
03:29 -12 °C -15.7 °C 1027.7 hPa WNW 0.2 km/h 3.2 km/h 74% 0 mm 0 W/m2
03:34 -12 °C -15.7 °C 1027.3 hPa Calm   3.2 km/h 74% 0 mm 0 W/m2
03:39 -12 °C -15.7 °C 1027.3 hPa Calm     74% 0 mm 0 W/m2
03:44 -12 °C -15.7 °C 1027.3 hPa Calm     74% 0 mm 0 W/m2
03:49 -12 °C -15.7 °C 1027.7 hPa Calm     74% 0 mm 0 W/m2
03:54 -12 °C -15.7 °C 1027.3 hPa Calm     74% 0 mm 0 W/m2
03:59 -12.1 °C -15.7 °C 1027.3 hPa Calm     74% 0 mm 0 W/m2
04:04 -12.1 °C -15.8 °C 1027.3 hPa Calm     74% 0 mm 0 W/m2
04:09 -12.1 °C -15.8 °C 1027.3 hPa Calm     74% 0 mm 0 W/m2
04:14 -12.2 °C -15.8 °C 1027 hPa Calm     74% 0 mm 0 W/m2
04:19 -12.2 °C -15.8 °C 1026.6 hPa Calm     74% 0 mm 0 W/m2
04:24 -12.2 °C -15.8 °C 1026.6 hPa Calm     74% 0 mm 0 W/m2
04:29 -12.2 °C -15.8 °C 1026.3 hPa Calm     74% 0 mm 0 W/m2
04:34 -12.1 °C -15.7 °C 1026.3 hPa Calm   1.6 km/h 74.8% 0 mm 0 W/m2
04:39 -12.1 °C -15.6 °C 1026 hPa Calm   1.6 km/h 75% 0 mm 0 W/m2
04:44 -12 °C -15.5 °C 1026 hPa Calm   1.6 km/h 75% 0 mm 0 W/m2
04:49 -11.9 °C -15.4 °C 1026 hPa Calm   1.6 km/h 75% 0 mm 0 W/m2
04:54 -11.8 °C -15.3 °C 1025.6 hPa Calm   1.6 km/h 75% 0 mm 0 W/m2
04:59 -11.8 °C -15.3 °C 1025.6 hPa Calm   1.6 km/h 75% 0 mm 0 W/m2
05:04 -11.8 °C -15.3 °C 1025.6 hPa Calm   1.6 km/h 75% 0 mm 0 W/m2
05:09 -11.8 °C -15.3 °C 1025.6 hPa Calm     75.1% 0 mm 0 W/m2
05:14 -11.8 °C -15.2 °C 1025.3 hPa Calm     76% 0 mm 0 W/m2
05:19 -11.8 °C -15.2 °C 1024.9 hPa Calm     76% 0 mm 0 W/m2
05:24 -11.8 °C -15.2 °C 1024.9 hPa Calm   1.6 km/h 76% 0 mm 0 W/m2
05:29 -11.7 °C -15.1 °C 1024.9 hPa WNW 1.4 km/h 3.2 km/h 76% 0 mm 0 W/m2
05:34 -11.7 °C -15.1 °C 1024.6 hPa WNW 1.1 km/h 3.2 km/h 76% 0 mm 0 W/m2
05:39 -11.7 °C -15.1 °C 1024.6 hPa Calm   3.2 km/h 76.3% 0 mm 0 W/m2
05:44 -11.7 °C -14.9 °C 1024.6 hPa Calm   3.2 km/h 77% 0 mm 0 W/m2
05:49 -11.7 °C -14.9 °C 1024.6 hPa Calm   3.2 km/h 77% 0 mm 0 W/m2
05:54 -11.7 °C -14.8 °C 1024.6 hPa Calm   3.2 km/h 77.8% 0 mm 0 W/m2
05:59 -11.7 °C -14.7 °C 1024.6 hPa Calm   3.2 km/h 78% 0 mm 0 W/m2
06:04 -11.6 °C -14.7 °C 1024.6 hPa Calm   3.2 km/h 77.8% 0 mm 0 W/m2
06:09 -11.6 °C -14.6 °C 1024.6 hPa Calm     78% 0 mm 0 W/m2
06:14 -11.5 °C -14.6 °C 1024.6 hPa Calm     78.1% 0 mm 0 W/m2
06:19 -11.5 °C -14.4 °C 1024.6 hPa Calm     79% 0 mm 0 W/m2
06:24 -11.4 °C -14.3 °C 1024.3 hPa Calm     79% 0 mm 0 W/m2
06:28 -11.3 °C -14.2 °C 1024.3 hPa Calm     79% 0 mm 0 W/m2
06:34 -11.2 °C -13.9 °C 1024.3 hPa Calm     80% 0 mm 0 W/m2
06:39 -11 °C -13.8 °C 1024.3 hPa Calm     80% 0 mm 0 W/m2
06:44 -10.9 °C -13.7 °C 1024.3 hPa Calm     80% 0 mm 0 W/m2
06:49 -10.8 °C -13.6 °C 1024.3 hPa Calm     80% 0 mm 0 W/m2
06:54 -10.8 °C -13.6 °C 1023.9 hPa Calm     80% 0 mm 0 W/m2
06:59 -10.8 °C -13.6 °C 1023.9 hPa Calm     80% 0 mm 0 W/m2
07:04 -10.8 °C -13.6 °C 1023.9 hPa Calm     80% 0 mm 0 W/m2
07:09 -10.7 °C -13.5 °C 1023.6 hPa Calm     80% 0 mm 0 W/m2
07:14 -10.7 °C -13.3 °C 1023.6 hPa Calm     80.5% 0 mm 0 W/m2
07:19 -10.6 °C -13.2 °C 1023.6 hPa Calm     81% 0 mm 5 W/m2
07:24 -10.4 °C -13.1 °C 1023.2 hPa Calm     81% 0 mm 9 W/m2
07:29 -10.3 °C -12.9 °C 1023.2 hPa Calm     81% 0 mm 16 W/m2
07:34 -10.2 °C -12.8 °C 1023.2 hPa Calm     81% 0 mm 21 W/m2
07:39 -10.2 °C -12.8 °C 1023.2 hPa Calm     81% 0 mm 28 W/m2
07:44 -10.1 °C -12.6 °C 1023.2 hPa WNW 0.2 km/h 3.2 km/h 81.3% 0 mm 37 W/m2
07:49 -9.7 °C -12.2 °C 1022.9 hPa WNW 1.3 km/h 4.8 km/h 82.5% 0 mm 39 W/m2
07:54 -9.3 °C -11.7 °C 1022.6 hPa WNW 1 km/h 6.4 km/h 83% 0 mm 42 W/m2
07:59 -8.8 °C -11.2 °C 1022.6 hPa West 2.7 km/h 8 km/h 83% 0 mm 56 W/m2
08:00 -8.6 °C -10.9 °C 1022.6 hPa Calm   8 km/h 83% 0 mm 49 W/m2
08:09 -7.6 °C -10.1 °C 1022.6 hPa SW 3.4 km/h 11.3 km/h 82% 0 mm 107 W/m2
08:14 -6.7 °C -9.5 °C 1022.6 hPa SW 3.4 km/h 11.3 km/h 80.6% 0 mm 90 W/m2
08:19 -6.1 °C -9.2 °C 1022.6 hPa SW 5.6 km/h 11.3 km/h 78.3% 0 mm 148 W/m2
08:24 -5.4 °C -8.9 °C 1022.6 hPa SW 3.2 km/h 12.9 km/h 76.5% 0 mm 149 W/m2
08:29 -4.8 °C -8.6 °C 1022.6 hPa SW 2.4 km/h 12.9 km/h 75% 0 mm 165 W/m2
08:34 -4.3 °C -8.4 °C 1022.6 hPa SW 4.3 km/h 12.9 km/h 72.9% 0 mm 193 W/m2
08:39 -3.8 °C -8.2 °C 1022.6 hPa SW 2.1 km/h 11.3 km/h 71.4% 0 mm 218 W/m2
08:44 -3.4 °C -8.1 °C 1022.2 hPa SW 3.1 km/h 11.3 km/h 70.2% 0 mm 221 W/m2
08:49 -3 °C -7.9 °C 1022.2 hPa SW 3.1 km/h 17.7 km/h 68.9% 0 mm 230 W/m2
08:54 -2.7 °C -7.8 °C 1022.2 hPa SW 2.7 km/h 17.7 km/h 67.8% 0 mm 243 W/m2
08:59 -2.5 °C -7.8 °C 1022.2 hPa SW 2.1 km/h 17.7 km/h 67% 0 mm 243 W/m2
09:04 -2.3 °C -7.4 °C 1021.9 hPa SW 3.1 km/h 17.7 km/h 67.5% 0 mm 246 W/m2
09:09 -2.1 °C -7.3 °C 1021.6 hPa SSW 5.8 km/h 16.1 km/h 67.1% 0 mm 220 W/m2
09:14 -1.9 °C -7.4 °C 1021.6 hPa SW 6.4 km/h 16.1 km/h 66.2% 0 mm 169 W/m2
09:19 -1.8 °C -7.3 °C 1021.2 hPa SSW 6 km/h 19.3 km/h 66.2% 0 mm 162 W/m2
09:24 -1.7 °C -7.1 °C 1021.2 hPa SSW 5.3 km/h 19.3 km/h 66.4% 0 mm 258 W/m2
09:29 -1.4 °C -6.9 °C 1021.2 hPa SW 7.9 km/h 20.9 km/h 66.1% 0 mm 204 W/m2
09:34 -1.3 °C -6.8 °C 1021.2 hPa SW 8 km/h 20.9 km/h 66% 0 mm 192 W/m2
09:39 -1.1 °C -6.7 °C 1020.9 hPa SW 7.4 km/h 19.3 km/h 66% 0 mm 206 W/m2
09:44 -0.9 °C -6.6 °C 1020.9 hPa SW 7.2 km/h 19.3 km/h 65.4% 0 mm 156 W/m2
09:49 -0.8 °C -6.6 °C 1020.9 hPa SW 5 km/h 19.3 km/h 65% 0 mm 134 W/m2
09:54 -0.7 °C -6.5 °C 1020.9 hPa SW 8.5 km/h 24.1 km/h 64.6% 0 mm 132 W/m2
09:59 -0.4 °C -6.4 °C 1020.9 hPa SW 8.5 km/h 24.1 km/h 64% 0 mm 186 W/m2
10:04 -0.3 °C -6.4 °C 1020.9 hPa SW 8.9 km/h 24.1 km/h 63.4% 0 mm 213 W/m2
10:09 -0.1 °C -6.3 °C 1020.5 hPa SW 5.5 km/h 19.3 km/h 62.7% 0 mm 98 W/m2
10:14 0.1 °C -6.3 °C 1020.5 hPa SW 6.1 km/h 24.1 km/h 62.1% 0 mm 225 W/m2
10:19 0.3 °C -6.3 °C 1020.5 hPa SW 7.9 km/h 24.1 km/h 60.8% 0 mm 269 W/m2
10:24 0.7 °C -6.2 °C 1020.5 hPa SW 6.1 km/h 24.1 km/h 60.1% 0 mm 265 W/m2
10:29 0.9 °C -6.3 °C 1020.2 hPa SW 10.1 km/h 29 km/h 58.7% 0 mm 179 W/m2
10:34 0.9 °C -6.6 °C 1020.2 hPa SW 7.1 km/h 29 km/h 57.2% 0 mm 176 W/m2
10:39 1 °C -6.3 °C 1020.2 hPa SW 2.1 km/h 24.1 km/h 58.3% 0 mm 450 W/m2
10:44 1.3 °C -5.9 °C 1020.2 hPa SW 6 km/h 24.1 km/h 58.1% 0 mm 450 W/m2
10:49 1.7 °C -6.3 °C 1020.2 hPa SW 9.7 km/h 24.1 km/h 55.5% 0 mm 183 W/m2
10:54 1.8 °C -6.3 °C 1019.9 hPa SSW 2.9 km/h 24.1 km/h 55% 0 mm 213 W/m2
10:59 2 °C -6.2 °C 1019.9 hPa SW 6.1 km/h 24.1 km/h 54.6% 0 mm 339 W/m2
11:04 2.2 °C -6.1 °C 1019.9 hPa SW 8.2 km/h 24.1 km/h 54.3% 0 mm 373 W/m2
11:09 2.3 °C -6.2 °C 1019.5 hPa SW 6.3 km/h 20.9 km/h 53.5% 0 mm 265 W/m2
11:14 2.3 °C -6.1 °C 1019.5 hPa SW 4.7 km/h 20.9 km/h 53.5% 0 mm 234 W/m2
11:19 2.4 °C -5.9 °C 1019.5 hPa SW 6.6 km/h 24.1 km/h 54% 0 mm 287 W/m2
11:24 2.6 °C -6.1 °C 1019.5 hPa SW 8.9 km/h 24.1 km/h 53% 0 mm 183 W/m2
11:29 2.6 °C -5.9 °C 1019.2 hPa SW 7.2 km/h 24.1 km/h 53.5% 0 mm 183 W/m2
11:34 2.7 °C -5.8 °C 1019.2 hPa SW 8 km/h 24.1 km/h 53.7% 0 mm 230 W/m2
11:39 2.7 °C -5.9 °C 1018.8 hPa SW 8.9 km/h 24.1 km/h 53% 0 mm 371 W/m2
11:44 2.8 °C -5.8 °C 1018.8 hPa SW 8 km/h 24.1 km/h 53.3% 0 mm 371 W/m2
11:49 2.8 °C -5.8 °C 1018.8 hPa SW 12.2 km/h 25.7 km/h 53% 0 mm 278 W/m2
11:54 2.7 °C -5.9 °C 1018.5 hPa SW 10 km/h 29 km/h 53% 0 mm 306 W/m2
11:59 2.7 °C -5.9 °C 1018.5 hPa SW 6.6 km/h 29 km/h 53.1% 0 mm 464 W/m2
12:00 2.7 °C -5.7 °C 1018.5 hPa SW 12.9 km/h 29 km/h 54% 0 mm 425 W/m2
12:09 2.9 °C -5.6 °C 1018.2 hPa SW 4.7 km/h 14.5 km/h 53.7% 0 mm 374 W/m2
12:14 3.1 °C -5.4 °C 1018.2 hPa SW 6.4 km/h 25.7 km/h 54% 0 mm 406 W/m2
12:19 3.2 °C -5.3 °C 1018.2 hPa SW 2.9 km/h 25.7 km/h 53.7% 0 mm 499 W/m2
12:24 3.4 °C -5.2 °C 1018.2 hPa SW 5.8 km/h 25.7 km/h 53.5% 0 mm 499 W/m2
12:29 3.7 °C -5.1 °C 1018.2 hPa SW 2.1 km/h 25.7 km/h 52.7% 0.25 mm 512 W/m2
12:34 3.8 °C -4.9 °C 1017.8 hPa SSW 3.9 km/h 25.7 km/h 52.6% 0.25 mm 512 W/m2
12:39 3.8 °C -5.1 °C 1017.8 hPa SSW 5.3 km/h 14.5 km/h 52% 0.25 mm 123 W/m2
12:44 3.7 °C -5.1 °C 1017.8 hPa SW 4.2 km/h 17.7 km/h 52.6% 0.25 mm 195 W/m2
12:49 3.8 °C -4.8 °C 1017.5 hPa SW 3.4 km/h 17.7 km/h 53.3% 0.25 mm 151 W/m2
12:54 4.1 °C -4.9 °C 1017.5 hPa SW 4.8 km/h 17.7 km/h 51.8% 0.25 mm 424 W/m2
12:59 4.2 °C -4.8 °C 1017.5 hPa SSW 3.5 km/h 17.7 km/h 51.8% 0.25 mm 424 W/m2
13:04 4.1 °C -4.9 °C 1017.5 hPa SW 4.8 km/h 17.7 km/h 52% 0.25 mm 302 W/m2
13:09 4 °C -5.2 °C 1017.2 hPa SW 7.4 km/h 24.1 km/h 51.2% 0 mm 144 W/m2
13:14 3.8 °C -5.2 °C 1017.2 hPa SW 5 km/h 24.1 km/h 51.8% 0 mm 227 W/m2
13:19 3.8 °C -5.1 °C 1017.2 hPa SW 3.4 km/h 24.1 km/h 52.4% 0 mm 318 W/m2
13:24 3.9 °C -4.7 °C 1017.2 hPa SW 3.5 km/h 24.1 km/h 53.2% 0 mm 318 W/m2
13:29 4.1 °C -4.8 °C 1017.2 hPa SW 3.1 km/h 24.1 km/h 52.3% 0.25 mm 178 W/m2
13:34 4.1 °C -4.8 °C 1016.8 hPa SW 2.7 km/h 24.1 km/h 52.2% 0.25 mm 120 W/m2
13:39 4.2 °C -4.6 °C 1016.8 hPa SW 5.5 km/h 11.3 km/h 52.5% 0.25 mm 113 W/m2
13:44 4.4 °C -4.9 °C 1016.8 hPa SW 4.5 km/h 11.3 km/h 51% 0.25 mm 93 W/m2
13:49 4.4 °C -4.9 °C 1016.8 hPa SW 3.4 km/h 11.3 km/h 51% 0.25 mm 132 W/m2
13:54 4.3 °C -4.8 °C 1016.8 hPa SW 3.5 km/h 12.9 km/h 51.4% 0.25 mm 257 W/m2
13:59 4.3 °C -4.8 °C 1016.8 hPa SW 3.9 km/h 14.5 km/h 51.6% 0.25 mm 195 W/m2
14:04 4.3 °C -4.9 °C 1016.5 hPa SW 5 km/h 17.7 km/h 51% 0.25 mm 174 W/m2
14:09 4.4 °C -4.7 °C 1016.5 hPa SW 2.3 km/h 17.7 km/h 51.5% 0.25 mm 188 W/m2
14:14 4.4 °C -4.7 °C 1016.5 hPa SW 3.9 km/h 17.7 km/h 51.5% 0.25 mm 174 W/m2
14:19 4.4 °C -4.8 °C 1016.5 hPa SW 4.7 km/h 17.7 km/h 51% 0.25 mm 146 W/m2
14:24 4.4 °C -5 °C 1016.5 hPa SW 1 km/h 17.7 km/h 50.5% 0.25 mm 135 W/m2
14:29 4.4 °C -4.6 °C 1016.8 hPa SW 1.1 km/h 17.7 km/h 51.9% 0.25 mm 220 W/m2
14:34 4.4 °C -4.6 °C 1016.8 hPa SW 2.3 km/h 17.7 km/h 52% 0.25 mm 135 W/m2
14:39 4.5 °C -4.6 °C 1016.8 hPa SW 3.4 km/h 9.7 km/h 51.5% 0 mm 74 W/m2
14:44 4.4 °C -4.8 °C 1016.8 hPa SW 3.2 km/h 16.1 km/h 51% 0 mm 79 W/m2
14:49 4.2 °C -4.8 °C 1016.8 hPa SW 1.9 km/h 16.1 km/h 51.7% 0 mm 74 W/m2
14:54 4.1 °C -4.8 °C 1016.8 hPa SW 1.8 km/h 16.1 km/h 52.5% 0 mm 67 W/m2
14:59 4 °C -4.8 °C 1016.8 hPa SW 1.9 km/h 16.1 km/h 52.8% 0 mm 63 W/m2
15:04 4 °C -4.8 °C 1016.8 hPa SW 3.5 km/h 16.1 km/h 52.8% 0 mm 62 W/m2
15:09 3.9 °C -4.8 °C 1016.8 hPa SW 2.6 km/h 14.5 km/h 52.9% 0 mm 63 W/m2
15:14 3.9 °C -4.9 °C 1016.8 hPa SW 3.2 km/h 14.5 km/h 52.6% 0 mm 60 W/m2
15:19 3.8 °C -5.2 °C 1016.8 hPa SW 1.8 km/h 14.5 km/h 52% 0 mm 56 W/m2
15:24 3.7 °C -5.1 °C 1017.2 hPa SW 3.7 km/h 14.5 km/h 52.5% 0 mm 56 W/m2
15:29 3.6 °C -5.3 °C 1017.2 hPa WSW 1.3 km/h 14.5 km/h 52% 0 mm 49 W/m2
15:34 3.6 °C -5.2 °C 1016.8 hPa WSW 0.3 km/h 14.5 km/h 52.6% 0 mm 44 W/m2
15:39 3.5 °C -5.2 °C 1016.8 hPa WSW 1.4 km/h 6.4 km/h 53% 0 mm 39 W/m2
15:44 3.4 °C -5.2 °C 1016.8 hPa WSW 0.5 km/h 6.4 km/h 53.2% 0 mm 37 W/m2
15:49 3.4 °C -5 °C 1016.8 hPa WSW 0.6 km/h 6.4 km/h 54% 0 mm 37 W/m2
15:54 3.4 °C -5.1 °C 1016.8 hPa WSW 1.4 km/h 6.4 km/h 54% 0 mm 37 W/m2
15:59 3.3 °C -5.1 °C 1017.2 hPa SW 2.7 km/h 14.5 km/h 53.9% 0 mm 35 W/m2
16:00 3.3 °C -5.3 °C 1017.2 hPa SW 9.7 km/h 14.5 km/h 53% 0 mm 30 W/m2
16:09 3.2 °C -5.4 °C 1017.2 hPa SW 4 km/h 12.9 km/h 53% 0 mm 30 W/m2
16:14 3.2 °C -5.5 °C 1017.2 hPa WSW 2.4 km/h 12.9 km/h 53% 0 mm 28 W/m2
16:19 3.1 °C -5.4 °C 1017.2 hPa SW 2.4 km/h 12.9 km/h 53.7% 0 mm 21 W/m2
16:24 3 °C -5.4 °C 1017.2 hPa SW 3.2 km/h 19.3 km/h 54% 0 mm 16 W/m2
16:29 2.9 °C -5.3 °C 1017.2 hPa WSW 0.8 km/h 19.3 km/h 54.7% 0 mm 11 W/m2
16:34 2.8 °C -5.4 °C 1017.2 hPa SW 2.4 km/h 19.3 km/h 54.9% 0 mm 7 W/m2
16:39 2.7 °C -5.5 °C 1017.5 hPa WSW 0.8 km/h 17.7 km/h 54.9% 0 mm 0 W/m2
16:44 2.6 °C -5.4 °C 1017.5 hPa WSW 1.6 km/h 17.7 km/h 55.6% 0 mm 0 W/m2
16:49 2.4 °C -5.6 °C 1017.5 hPa WSW 2.1 km/h 17.7 km/h 55.3% 0 mm 0 W/m2
16:54 2.3 °C -5.6 °C 1017.5 hPa WSW 0.8 km/h 17.7 km/h 56% 0 mm 0 W/m2
16:59 2.2 °C -5.6 °C 1017.5 hPa SW 0.5 km/h 17.7 km/h 56.1% 0 mm 0 W/m2
17:04 2.1 °C -5.7 °C 1017.5 hPa Calm   17.7 km/h 56.3% 0 mm 0 W/m2
17:09 2 °C -5.5 °C 1017.5 hPa SW 0.5 km/h 4.8 km/h 57.7% 0 mm 0 W/m2
17:14 1.9 °C -5.7 °C 1017.8 hPa SW 0.2 km/h 4.8 km/h 57% 0 mm 0 W/m2
17:19 1.8 °C -5.7 °C 1017.8 hPa Calm   4.8 km/h 57.8% 0 mm 0 W/m2
17:24 1.7 °C -5.7 °C 1017.8 hPa WSW 1.1 km/h 4.8 km/h 58% 0 mm 0 W/m2
17:29 1.5 °C -5.8 °C 1017.8 hPa SW 3.5 km/h 14.5 km/h 58% 0 mm 0 W/m2
17:34 1.5 °C -5.8 °C 1017.5 hPa SW 0.5 km/h 14.5 km/h 58.3% 0 mm 0 W/m2
17:39 1.4 °C -5.7 °C 1017.5 hPa SW 0.2 km/h 3.2 km/h 59% 0 mm 0 W/m2
17:44 1.3 °C -5.8 °C 1017.5 hPa Calm   3.2 km/h 59% 0 mm 0 W/m2
17:49 1.3 °C -5.9 °C 1017.8 hPa SW 0.3 km/h 3.2 km/h 59% 0 mm 0 W/m2
17:54 1.2 °C -5.9 °C 1017.8 hPa Calm   3.2 km/h 59% 0 mm 0 W/m2
17:59 1.1 °C -5.9 °C 1017.8 hPa Calm   3.2 km/h 59.5% 0 mm 0 W/m2
18:04 0.9 °C -6 °C 1017.8 hPa Calm   3.2 km/h 60% 0 mm 0 W/m2
18:09 0.8 °C -6.1 °C 1017.8 hPa Calm     60% 0 mm 0 W/m2
18:14 0.7 °C -6.2 °C 1017.8 hPa Calm     60% 0 mm 0 W/m2
18:19 0.6 °C -6.1 °C 1018.2 hPa Calm     61% 0 mm 0 W/m2
18:24 0.6 °C -6.1 °C 1018.2 hPa Calm     61% 0 mm 0 W/m2
18:29 0.5 °C -6.2 °C 1018.2 hPa Calm     61% 0 mm 0 W/m2
18:34 0.5 °C -6 °C 1017.8 hPa Calm   1.6 km/h 61.7% 0 mm 0 W/m2
18:39 0.4 °C -6 °C 1018.2 hPa SW 0.2 km/h 1.6 km/h 62% 0 mm 0 W/m2
18:44 0.3 °C -5.9 °C 1018.2 hPa Calm   1.6 km/h 63% 0 mm 0 W/m2
18:49 0.2 °C -5.9 °C 1018.2 hPa SW 0.3 km/h 1.6 km/h 63.5% 0 mm 0 W/m2
18:54 -0.1 °C -6.1 °C 1018.2 hPa SW 0.2 km/h 1.6 km/h 64% 0 mm 0 W/m2
18:59 -0.2 °C -6.1 °C 1018.2 hPa SW 0.8 km/h 3.2 km/h 64.3% 0 mm 0 W/m2
19:04 -0.3 °C -6.1 °C 1018.2 hPa SW 1.8 km/h 4.8 km/h 65% 0 mm 0 W/m2
19:09 -0.3 °C -6.1 °C 1018.2 hPa SW 0.6 km/h 4.8 km/h 65% 0 mm 0 W/m2
19:14 -0.3 °C -6 °C 1018.2 hPa Calm   4.8 km/h 65.3% 0 mm 0 W/m2
19:19 -0.3 °C -5.8 °C 1018.2 hPa SW 0.3 km/h 4.8 km/h 66% 0 mm 0 W/m2
19:24 -0.3 °C -5.9 °C 1018.2 hPa SW 0.6 km/h 4.8 km/h 66% 0 mm 0 W/m2
19:29 -0.3 °C -5.9 °C 1018.2 hPa Calm   4.8 km/h 66% 0 mm 0 W/m2
19:34 -0.3 °C -5.9 °C 1018.2 hPa Calm   4.8 km/h 66% 0 mm 0 W/m2
19:39 -0.3 °C -5.9 °C 1018.5 hPa SW 1 km/h 3.2 km/h 66% 0 mm 0 W/m2
19:44 -0.3 °C -5.8 °C 1018.5 hPa SW 0.3 km/h 4.8 km/h 66% 0 mm 0 W/m2
19:49 -0.3 °C -5.8 °C 1018.5 hPa SW 0.2 km/h 4.8 km/h 66% 0 mm 0 W/m2
19:54 -0.2 °C -5.8 °C 1018.5 hPa SW 0.3 km/h 4.8 km/h 66% 0 mm 0 W/m2
19:59 -0.2 °C -5.8 °C 1018.5 hPa SW 0.2 km/h 4.8 km/h 66% 0 mm 0 W/m2
20:00 -0.2 °C -5.7 °C 1018.5 hPa Calm   4.8 km/h 66% 0 mm 0 W/m2
20:09 -0.1 °C -5.6 °C 1018.5 hPa SW 0.3 km/h 3.2 km/h 66.4% 0 mm 0 W/m2
20:14 -0.1 °C -5.4 °C 1018.5 hPa SW 0.5 km/h 3.2 km/h 67% 0 mm 0 W/m2
20:19 -0.1 °C -5.4 °C 1018.5 hPa SW 1.1 km/h 4.8 km/h 67% 0 mm 0 W/m2
20:24 0 °C -5.4 °C 1018.5 hPa SW 1.3 km/h 4.8 km/h 67% 0 mm 0 W/m2
20:29 0.1 °C -5.3 °C 1018.5 hPa SW 1.1 km/h 4.8 km/h 67% 0 mm 0 W/m2
20:34 0.1 °C -5.3 °C 1018.5 hPa SW 2.3 km/h 6.4 km/h 67% 0 mm 0 W/m2
20:39 0.2 °C -5.2 °C 1018.5 hPa SW 1.8 km/h 6.4 km/h 67% 0 mm 0 W/m2
20:44 0.3 °C -5.2 °C 1018.5 hPa SW 1.9 km/h 6.4 km/h 67% 0 mm 0 W/m2
20:49 0.3 °C -5.1 °C 1018.5 hPa SW 1.8 km/h 8 km/h 67% 0 mm 0 W/m2
20:54 0.4 °C -5 °C 1018.5 hPa SW 1 km/h 8 km/h 67% 0 mm 0 W/m2
20:59 0.4 °C -4.9 °C 1018.2 hPa SW 0.5 km/h 8 km/h 67% 0 mm 0 W/m2
21:04 0.5 °C -4.9 °C 1018.5 hPa Calm   8 km/h 67% 0 mm 0 W/m2
21:09 0.6 °C -5.1 °C 1018.5 hPa SW 2.1 km/h 4.8 km/h 66% 0 mm 0 W/m2
21:14 0.7 °C -5 °C 1018.5 hPa SW 1.8 km/h 4.8 km/h 66% 0 mm 0 W/m2
21:19 0.7 °C -4.8 °C 1018.2 hPa SW 1.1 km/h 4.8 km/h 66.4% 0 mm 0 W/m2
21:24 0.7 °C -4.8 °C 1018.2 hPa SW 0.8 km/h 6.4 km/h 66.3% 0 mm 0 W/m2
21:29 0.8 °C -4.8 °C 1018.2 hPa SW 1.1 km/h 6.4 km/h 66% 0 mm 0 W/m2
21:34 0.8 °C -4.8 °C 1018.2 hPa Calm   6.4 km/h 66% 0 mm 0 W/m2
21:39 0.8 °C -4.8 °C 1018.2 hPa Calm     66% 0 mm 0 W/m2
21:44 0.8 °C -4.8 °C 1018.2 hPa Calm     66% 0 mm 0 W/m2
21:49 0.8 °C -4.8 °C 1018.2 hPa Calm     66% 0 mm 0 W/m2
21:54 0.9 °C -4.7 °C 1018.2 hPa SW 0.2 km/h 3.2 km/h 66% 0 mm 0 W/m2
21:59 0.9 °C -4.6 °C 1018.2 hPa Calm   3.2 km/h 67% 0 mm 0 W/m2
22:04 0.9 °C -4.6 °C 1018.5 hPa Calm   3.2 km/h 67% 0 mm 0 W/m2
22:09 0.9 °C -4.6 °C 1018.2 hPa Calm     67% 0 mm 0 W/m2
22:14 0.9 °C -4.6 °C 1018.2 hPa Calm     67% 0 mm 0 W/m2
22:19 0.9 °C -4.6 °C 1018.2 hPa Calm     67% 0 mm 0 W/m2
22:24 0.9 °C -4.6 °C 1018.2 hPa Calm     67% 0 mm 0 W/m2
22:29 0.9 °C -4.6 °C 1018.2 hPa Calm     67% 0 mm 0 W/m2
22:34 0.9 °C -4.5 °C 1018.2 hPa Calm     67% 0 mm 0 W/m2
22:39 0.9 °C -4.5 °C 1018.2 hPa Calm     67% 0 mm 0 W/m2
22:44 0.9 °C -4.6 °C 1018.5 hPa Calm   1.6 km/h 66.7% 0 mm 0 W/m2
22:49 1 °C -4.7 °C 1018.2 hPa SW 0.2 km/h 1.6 km/h 65.9% 0 mm 0 W/m2
22:54 1.1 °C -4.7 °C 1018.2 hPa Calm   1.6 km/h 65.6% 0 mm 0 W/m2
22:59 1.1 °C -4.6 °C 1018.2 hPa Calm   1.6 km/h 66% 0 mm 0 W/m2
23:00 1.1 °C -4.6 °C 1018.2 hPa Calm   1.6 km/h 66% 0 mm 0 W/m2
23:09 1 °C -4.6 °C 1018.2 hPa Calm     66% 0 mm 0 W/m2
23:14 1 °C -4.6 °C 1018.2 hPa Calm     66% 0 mm 0 W/m2
23:19 0.9 °C -4.5 °C 1018.2 hPa Calm     67% 0 mm 0 W/m2
23:24 0.9 °C -4.5 °C 1018.2 hPa Calm     67% 0 mm 0 W/m2
23:29 0.9 °C -4.6 °C 1018.2 hPa Calm     67% 0 mm 0 W/m2
23:34 0.8 °C -4.6 °C 1017.8 hPa Calm     67% 0 mm 0 W/m2
23:39 0.9 °C -4.2 °C 1017.8 hPa Calm     68.7% 0 mm 0 W/m2
23:44 0.9 °C -3.7 °C 1017.8 hPa Calm     71.2% 0 mm 0 W/m2
23:49 1 °C -3.6 °C 1017.8 hPa Calm     71.5% 0 mm 0 W/m2
23:54 1.1 °C -3.6 °C 1017.5 hPa Calm     71.3% 0 mm 0 W/m2
23:59 1.1 °C -3.3 °C 1017.5 hPa Calm     72.6% 0 mm 0 W/m2
Hartford County Weather
Compliments of Weather Underground - 2 mb